createdAt,value
2018-05-17T12:06:50.254Z,44.30
2018-05-17T12:11:56.271Z,44.10
2018-05-17T12:17:14.374Z,43.70
2018-05-17T12:27:58.737Z,43.30
2018-05-17T12:38:29.872Z,42.30
2018-05-17T13:00:13.701Z,41.50
2018-05-17T13:05:34.487Z,41.50
2018-05-17T13:10:44.243Z,40.10
2018-05-17T13:15:48.869Z,39.50
2018-05-17T13:20:54.590Z,40.00
2018-05-17T13:26:06.723Z,39.70
2018-05-17T13:31:14.296Z,39.30
2018-05-17T13:36:23.389Z,39.20
2018-05-17T14:09:38.610Z,37.30
2018-05-17T14:14:46.303Z,36.90
2018-05-17T14:19:55.077Z,36.30
2018-05-17T14:25:07.349Z,36.30
2018-05-17T14:30:14.529Z,35.70
2018-05-17T14:35:23.373Z,35.60
2018-05-17T14:40:40.503Z,35.10
2018-05-17T14:45:45.333Z,35.50
2018-05-17T14:50:51.747Z,35.60
2018-05-17T14:56:22.668Z,35.50
2018-05-17T15:01:28.014Z,36.60
2018-05-17T15:06:35.374Z,34.50
2018-05-17T15:11:41.918Z,34.40
2018-05-17T15:16:49.263Z,34.50
2018-05-17T15:21:54.735Z,34.70
2018-05-17T15:27:00.897Z,34.50
2018-05-17T15:32:05.011Z,34.40
2018-05-17T15:37:12.526Z,33.50
2018-05-17T15:42:17.281Z,33.80
2018-05-17T15:47:19.873Z,34.30
2018-05-17T15:52:30.674Z,34.20
2018-05-17T15:57:36.824Z,33.80
2018-05-17T16:02:41.995Z,33.20
2018-05-17T16:07:53.465Z,33.40
2018-05-17T16:13:03.351Z,33.30
2018-05-17T16:18:10.399Z,33.20
2018-05-17T16:23:30.695Z,33.80
2018-05-17T16:28:35.922Z,33.80
2018-05-17T16:33:41.139Z,33.80
2018-05-17T16:39:05.146Z,33.20
2018-05-17T16:50:38.333Z,33.20
2018-05-17T16:55:41.993Z,33.20
2018-05-17T17:00:45.886Z,33.30
2018-05-17T17:05:49.862Z,33.20
2018-05-17T17:10:52.469Z,33.30
2018-05-17T17:15:56.451Z,34.00
2018-05-17T17:21:00.835Z,33.10
2018-05-17T17:26:04.269Z,33.10
2018-05-17T17:36:29.582Z,33.20
2018-05-17T17:41:33.176Z,33.10
2018-05-17T17:46:36.283Z,33.30
2018-05-17T17:51:38.865Z,33.20
2018-05-17T17:56:41.450Z,33.30
2018-05-17T18:01:44.907Z,33.60
2018-05-17T18:06:50.298Z,33.40
2018-05-17T18:11:52.893Z,33.40
2018-05-17T18:16:55.503Z,33.60
2018-05-17T18:21:58.884Z,34.00
2018-05-17T18:27:01.524Z,33.80
2018-05-17T18:32:04.863Z,34.10
2018-05-17T18:37:07.451Z,34.10
2018-05-17T18:42:11.498Z,34.00
2018-05-17T18:47:21.734Z,34.10
2018-05-17T18:52:25.076Z,34.40
2018-05-17T18:57:27.694Z,34.40
2018-05-17T19:02:34.691Z,34.50
2018-05-17T19:07:37.273Z,34.60
2018-05-17T19:12:39.851Z,34.90
2018-05-17T19:17:42.458Z,35.10
2018-05-17T19:22:45.086Z,35.20
2018-05-17T19:27:47.752Z,35.50
2018-05-17T19:32:52.263Z,35.50
2018-05-17T19:37:55.816Z,35.70
2018-05-17T19:42:59.190Z,35.90
2018-05-17T19:48:05.418Z,36.00
2018-05-17T19:53:08.231Z,35.90
2018-05-17T19:58:17.921Z,36.10
2018-05-17T20:03:20.496Z,36.00
2018-05-17T20:08:23.104Z,36.10
2018-05-17T20:13:34.313Z,36.10
2018-05-17T20:18:37.777Z,36.20
2018-05-17T20:23:46.118Z,36.50
2018-05-17T20:28:48.806Z,36.50
2018-05-17T20:33:52.189Z,36.30
2018-05-17T20:38:55.547Z,36.30
2018-05-17T20:43:59.138Z,36.30
2018-05-17T20:49:03.336Z,37.80
2018-05-17T20:54:08.547Z,37.20
2018-05-17T20:59:11.117Z,37.20
2018-05-17T21:04:13.701Z,37.40
2018-05-17T21:09:17.067Z,37.80
2018-05-17T21:14:19.639Z,37.90
2018-05-17T21:19:23.187Z,38.00
2018-05-17T21:24:26.649Z,38.40
2018-05-17T21:29:29.231Z,38.40
2018-05-17T21:34:33.238Z,38.40
2018-05-17T21:39:43.064Z,38.40
2018-05-17T21:44:45.687Z,38.40
2018-05-17T21:49:54.227Z,38.50
2018-05-17T21:54:56.810Z,38.60
2018-05-17T21:59:59.486Z,38.80
2018-05-17T22:05:02.047Z,38.70
2018-05-17T22:10:10.359Z,39.00
2018-05-17T22:15:17.967Z,38.90
2018-05-17T22:20:20.609Z,39.00
2018-05-17T22:25:23.266Z,39.10
2018-05-17T22:30:29.444Z,39.90
2018-05-17T22:35:35.158Z,39.50
2018-05-17T22:40:43.240Z,39.40
2018-05-17T22:45:45.868Z,39.50
2018-05-17T22:50:50.976Z,39.60
2018-05-17T22:55:58.546Z,39.70
2018-05-17T23:01:01.190Z,39.70
2018-05-17T23:06:04.390Z,39.70
2018-05-17T23:11:10.581Z,39.60
2018-05-17T23:16:14.020Z,39.80
2018-05-17T23:21:24.919Z,40.00
2018-05-17T23:26:28.798Z,39.90
2018-05-17T23:31:35.306Z,40.00
2018-05-17T23:36:46.035Z,40.90
2018-05-17T23:41:53.100Z,40.30
2018-05-17T23:47:01.989Z,41.00
2018-05-17T23:52:10.357Z,40.40
2018-05-17T23:57:13.050Z,40.60
